createdAt,value
2018-07-14T00:00:17.679Z,16.98
2018-07-14T00:02:46.750Z,16.77
2018-07-14T00:05:15.965Z,16.62
2018-07-14T00:07:45.561Z,16.62
2018-07-14T00:10:14.678Z,16.69
2018-07-14T00:12:43.838Z,16.63
2018-07-14T00:15:12.951Z,16.51
2018-07-14T00:17:42.094Z,16.63
2018-07-14T00:20:11.238Z,16.69
2018-07-14T00:22:40.997Z,16.60
2018-07-14T00:25:10.134Z,16.67
2018-07-14T00:27:39.342Z,16.69
2018-07-14T00:30:08.527Z,16.73
2018-07-14T00:32:38.250Z,16.56
2018-07-14T00:35:07.361Z,16.49
2018-07-14T00:37:36.515Z,16.52
2018-07-14T00:40:05.819Z,16.49
2018-07-14T00:42:35.253Z,16.39
2018-07-14T00:45:04.423Z,16.24
2018-07-14T00:47:33.509Z,16.19
2018-07-14T00:50:02.614Z,16.14
2018-07-14T00:52:32.307Z,16.12
2018-07-14T00:55:01.438Z,15.98
2018-07-14T00:57:30.635Z,15.86
2018-07-14T00:59:59.878Z,15.82
2018-07-14T01:02:32.818Z,15.86
2018-07-14T01:05:02.663Z,15.88
2018-07-14T01:07:32.556Z,15.80
2018-07-14T01:10:02.751Z,15.76
2018-07-14T01:12:32.457Z,15.79
2018-07-14T01:15:01.724Z,15.82
2018-07-14T01:17:30.797Z,15.85
2018-07-14T01:20:00.226Z,15.86
2018-07-14T01:22:29.327Z,15.83
2018-07-14T01:24:58.394Z,15.82
2018-07-14T01:27:27.510Z,15.86
2018-07-14T01:29:56.606Z,16.02
2018-07-14T01:32:25.693Z,15.99
2018-07-14T01:34:54.942Z,15.86
2018-07-14T01:37:24.037Z,15.80
2018-07-14T01:39:53.215Z,15.67
2018-07-14T01:42:22.281Z,15.69
2018-07-14T01:44:51.360Z,15.64
2018-07-14T01:47:20.446Z,15.64
2018-07-14T01:49:49.519Z,15.58
2018-07-14T01:52:18.709Z,15.49
2018-07-14T01:54:47.767Z,15.51
2018-07-14T01:57:16.835Z,15.56
2018-07-14T01:59:45.966Z,15.53
2018-07-14T02:02:15.770Z,15.48
2018-07-14T02:04:45.875Z,15.49
2018-07-14T02:07:14.970Z,15.36
2018-07-14T02:09:44.066Z,15.29
2018-07-14T02:12:13.875Z,15.28
2018-07-14T02:14:42.693Z,15.15
2018-07-14T02:17:11.771Z,15.06
2018-07-14T02:19:40.901Z,14.95
2018-07-14T02:22:09.955Z,14.87
2018-07-14T02:24:39.110Z,14.84
2018-07-14T02:27:08.231Z,14.77
2018-07-14T02:29:37.294Z,14.71
2018-07-14T02:32:06.698Z,14.63
2018-07-14T02:34:36.193Z,14.66
2018-07-14T02:37:05.614Z,14.69
2018-07-14T02:39:35.106Z,14.64
2018-07-14T02:42:04.727Z,14.65
2018-07-14T02:44:34.019Z,14.70
2018-07-14T02:47:03.576Z,14.85
2018-07-14T02:49:33.057Z,15.07
2018-07-14T02:52:02.592Z,15.33
2018-07-14T02:54:31.463Z,15.45
2018-07-14T02:57:00.590Z,15.49
2018-07-14T02:59:30.051Z,15.48
2018-07-14T03:01:59.211Z,15.39
2018-07-14T03:04:28.486Z,15.36
2018-07-14T03:06:57.568Z,15.34
2018-07-14T03:09:26.631Z,15.31
2018-07-14T03:11:55.683Z,15.28
2018-07-14T03:14:25.173Z,15.19
2018-07-14T03:16:54.296Z,15.09
2018-07-14T03:19:23.414Z,15.04
2018-07-14T03:21:52.728Z,15.08
2018-07-14T03:24:21.801Z,15.11
2018-07-14T03:26:50.897Z,15.13
2018-07-14T03:29:20.023Z,15.23
2018-07-14T03:31:49.098Z,15.32
2018-07-14T03:34:18.195Z,15.39
2018-07-14T03:36:47.425Z,15.38
2018-07-14T03:39:16.431Z,15.48
2018-07-14T03:41:45.511Z,15.56
2018-07-14T03:44:15.178Z,15.69
2018-07-14T03:46:44.242Z,15.73
2018-07-14T03:49:13.315Z,15.76
2018-07-14T03:51:42.390Z,15.75
2018-07-14T03:54:11.472Z,15.72
2018-07-14T03:56:40.598Z,15.64
2018-07-14T03:59:09.675Z,15.63
2018-07-14T04:01:38.747Z,15.56
2018-07-14T04:04:07.835Z,15.53
2018-07-14T04:06:36.995Z,15.55
2018-07-14T04:09:07.141Z,15.62
2018-07-14T04:11:36.438Z,15.75
2018-07-14T04:14:05.895Z,15.85
2018-07-14T04:16:34.998Z,15.81
2018-07-14T04:19:04.211Z,15.97
2018-07-14T04:21:33.474Z,16.03
2018-07-14T04:24:02.855Z,16.06
2018-07-14T04:26:32.205Z,16.22
2018-07-14T04:29:01.278Z,16.24
2018-07-14T04:31:30.342Z,16.28
2018-07-14T04:33:59.535Z,16.22
2018-07-14T04:36:28.606Z,16.27
2018-07-14T04:38:57.726Z,16.14
2018-07-14T04:41:26.870Z,16.46
2018-07-14T04:43:55.935Z,16.68
2018-07-14T04:46:25.003Z,17.02
2018-07-14T04:48:54.107Z,17.41
2018-07-14T04:51:23.178Z,17.60
2018-07-14T04:53:52.255Z,18.07
2018-07-14T04:56:21.317Z,18.68
2018-07-14T04:58:50.898Z,18.93
2018-07-14T05:01:20.319Z,19.48
2018-07-14T05:03:49.369Z,19.30
2018-07-14T05:06:18.857Z,19.63
2018-07-14T05:08:47.928Z,20.35
2018-07-14T05:11:16.996Z,20.47
2018-07-14T05:13:46.046Z,20.03
2018-07-14T05:16:15.235Z,19.59
2018-07-14T05:18:44.349Z,19.18
2018-07-14T05:21:14.023Z,19.06
2018-07-14T05:23:43.047Z,18.66
2018-07-14T05:26:12.186Z,18.56
2018-07-14T05:28:41.336Z,19.15
2018-07-14T05:31:10.342Z,19.86
2018-07-14T05:33:39.482Z,20.57
2018-07-14T05:36:09.579Z,20.51
2018-07-14T05:38:39.150Z,21.46
2018-07-14T05:41:08.218Z,21.95
2018-07-14T05:43:37.273Z,22.86
2018-07-14T05:46:06.431Z,22.89
2018-07-14T05:48:35.573Z,23.32
2018-07-14T05:51:04.708Z,22.34
2018-07-14T05:53:33.798Z,23.14
2018-07-14T05:56:02.859Z,23.76
2018-07-14T05:58:31.934Z,25.00
2018-07-14T06:01:01.047Z,25.35
2018-07-14T06:03:30.107Z,25.83
2018-07-14T06:05:59.170Z,24.97
2018-07-14T06:08:28.242Z,25.10
2018-07-14T06:10:57.663Z,25.08
2018-07-14T06:13:26.726Z,25.91
2018-07-14T06:15:55.902Z,26.30
2018-07-14T06:18:25.684Z,26.24
2018-07-14T06:20:54.443Z,26.35
2018-07-14T06:23:23.508Z,25.97
2018-07-14T06:25:52.684Z,26.61
2018-07-14T06:28:22.178Z,27.27
2018-07-14T06:30:51.266Z,27.16
2018-07-14T06:33:20.338Z,26.22
2018-07-14T06:35:50.886Z,25.87
2018-07-14T06:38:20.076Z,25.78
2018-07-14T06:40:49.317Z,25.29
2018-07-14T06:43:18.442Z,24.98
2018-07-14T06:45:47.503Z,24.73
2018-07-14T06:48:16.612Z,24.39
2018-07-14T06:50:45.699Z,24.00
2018-07-14T06:53:14.758Z,23.93
2018-07-14T06:55:43.818Z,24.55
2018-07-14T06:58:12.899Z,24.67
2018-07-14T07:00:41.959Z,26.27
2018-07-14T07:03:11.005Z,27.38
2018-07-14T07:05:40.074Z,27.79
2018-07-14T07:08:09.138Z,29.25
2018-07-14T07:10:38.243Z,29.40
2018-07-14T07:13:07.358Z,29.76
2018-07-14T07:15:36.435Z,30.68
2018-07-14T07:18:05.715Z,31.08
2018-07-14T07:20:34.965Z,31.13
2018-07-14T07:23:04.499Z,30.71
2018-07-14T07:25:33.617Z,30.83
2018-07-14T07:28:02.763Z,30.80
2018-07-14T07:30:31.814Z,31.14
2018-07-14T07:33:01.059Z,30.90
2018-07-14T07:35:30.099Z,31.15
2018-07-14T07:37:59.154Z,31.41
2018-07-14T07:40:28.259Z,30.48
2018-07-14T07:42:57.347Z,29.06
2018-07-14T07:45:26.423Z,29.87
2018-07-14T07:47:56.162Z,29.96
2018-07-14T07:50:25.678Z,32.48
2018-07-14T07:52:55.678Z,33.26
2018-07-14T07:55:25.194Z,33.06
2018-07-14T07:57:54.488Z,33.21
2018-07-14T08:00:23.858Z,33.08
2018-07-14T08:02:53.590Z,33.88
2018-07-14T08:05:22.703Z,34.87
2018-07-14T08:07:51.762Z,35.78
2018-07-14T08:10:20.831Z,34.69
2018-07-14T08:12:49.926Z,35.56
2018-07-14T08:15:18.978Z,35.77
2018-07-14T08:17:48.039Z,36.84
2018-07-14T08:20:17.270Z,36.87
2018-07-14T08:22:47.205Z,36.91
2018-07-14T08:25:16.224Z,38.96
2018-07-14T08:27:45.350Z,39.72
2018-07-14T08:30:14.476Z,38.12
2018-07-14T08:32:43.583Z,38.22
2018-07-14T08:35:13.407Z,36.94
2018-07-14T08:37:42.358Z,37.65
2018-07-14T08:40:11.739Z,36.12
2018-07-14T08:42:40.804Z,36.68
2018-07-14T08:45:09.890Z,37.95
2018-07-14T08:47:39.922Z,40.25
2018-07-14T08:50:08.674Z,39.46
2018-07-14T08:52:37.802Z,38.15
2018-07-14T08:55:07.393Z,40.26
2018-07-14T08:57:38.579Z,40.77
2018-07-14T09:00:08.110Z,40.07
2018-07-14T09:02:37.814Z,40.78
2018-07-14T09:05:07.354Z,40.79
2018-07-14T09:07:37.031Z,41.75
2018-07-14T09:10:06.810Z,42.97
2018-07-14T09:12:36.062Z,42.20
2018-07-14T09:15:05.163Z,40.57
2018-07-14T09:17:34.205Z,40.84
2018-07-14T09:20:04.323Z,41.34
2018-07-14T09:22:33.979Z,40.16
2018-07-14T09:25:03.198Z,40.24
2018-07-14T09:27:32.431Z,37.47
2018-07-14T09:30:01.183Z,39.64
2018-07-14T09:32:30.823Z,38.04
2018-07-14T09:35:00.606Z,38.69
2018-07-14T09:37:30.601Z,37.33
2018-07-14T09:39:59.643Z,38.97
2018-07-14T09:42:28.682Z,39.94
2018-07-14T09:44:57.755Z,38.30
2018-07-14T09:47:26.962Z,37.47
2018-07-14T09:49:56.009Z,40.60
2018-07-14T09:52:25.078Z,39.26
2018-07-14T09:54:54.194Z,36.38
2018-07-14T09:57:23.275Z,38.66
2018-07-14T09:59:53.246Z,41.74
2018-07-14T10:02:23.442Z,41.05
2018-07-14T10:04:53.207Z,39.47
2018-07-14T10:07:22.526Z,39.34
2018-07-14T10:09:51.803Z,40.11
2018-07-14T10:12:22.281Z,41.30
2018-07-14T10:14:51.651Z,39.69
2018-07-14T10:17:21.113Z,39.98
2018-07-14T10:19:49.801Z,39.46
2018-07-14T10:22:19.802Z,38.89
2018-07-14T10:24:48.803Z,37.21
2018-07-14T10:27:17.846Z,38.51
2018-07-14T10:29:46.897Z,38.87
2018-07-14T10:32:15.954Z,40.77
2018-07-14T10:34:45.071Z,42.06
2018-07-14T10:37:14.147Z,42.79
2018-07-14T10:39:43.270Z,43.60
2018-07-14T10:42:12.445Z,42.73
2018-07-14T10:44:41.698Z,42.72
2018-07-14T10:47:10.755Z,42.66
2018-07-14T10:49:39.819Z,41.59
2018-07-14T10:52:09.342Z,40.10
2018-07-14T10:54:38.998Z,40.22
2018-07-14T10:57:08.509Z,42.00
2018-07-14T10:59:37.565Z,43.35
2018-07-14T11:02:06.764Z,39.53
2018-07-14T11:04:35.587Z,40.42
2018-07-14T11:07:04.770Z,37.75
2018-07-14T11:09:33.968Z,37.76
2018-07-14T11:12:03.092Z,36.71
2018-07-14T11:14:32.134Z,39.41
2018-07-14T11:17:01.198Z,40.07
2018-07-14T11:19:30.265Z,41.13
2018-07-14T11:21:59.330Z,41.98
2018-07-14T11:24:28.538Z,42.15
2018-07-14T11:26:57.819Z,41.34
2018-07-14T11:29:27.006Z,41.13
2018-07-14T11:31:56.238Z,41.20
2018-07-14T11:34:25.476Z,40.28
2018-07-14T11:36:54.446Z,41.33
2018-07-14T11:39:23.485Z,40.93
2018-07-14T11:41:52.554Z,39.50
2018-07-14T11:44:21.605Z,38.36
2018-07-14T11:46:50.958Z,37.56
2018-07-14T11:49:20.295Z,38.45
2018-07-14T11:51:49.385Z,39.36
2018-07-14T11:54:18.812Z,39.99
2018-07-14T11:56:47.872Z,39.81
2018-07-14T11:59:17.022Z,36.62
2018-07-14T12:01:46.064Z,35.74
2018-07-14T12:04:15.138Z,34.30
2018-07-14T12:06:44.206Z,32.46
2018-07-14T12:09:13.240Z,31.85
2018-07-14T12:11:42.510Z,31.87
2018-07-14T12:14:11.769Z,31.64
2018-07-14T12:16:40.386Z,31.91
2018-07-14T12:19:09.478Z,32.12
2018-07-14T12:21:38.554Z,31.21
2018-07-14T12:24:07.490Z,31.16
2018-07-14T12:26:36.609Z,31.80
2018-07-14T12:29:05.698Z,31.89
2018-07-14T12:31:34.767Z,31.23
2018-07-14T12:34:03.818Z,32.42
2018-07-14T12:36:32.948Z,33.67
2018-07-14T12:39:01.965Z,39.00
2018-07-14T12:41:31.019Z,43.25
2018-07-14T12:44:00.162Z,44.72
2018-07-14T12:46:29.207Z,44.49
2018-07-14T12:48:58.258Z,44.59
2018-07-14T12:51:27.366Z,44.59
2018-07-14T12:53:56.440Z,41.57
2018-07-14T12:56:25.478Z,41.40
2018-07-14T12:58:54.563Z,38.11
2018-07-14T13:01:23.623Z,34.01
2018-07-14T13:03:52.737Z,33.27
2018-07-14T13:06:21.799Z,32.27
2018-07-14T13:08:50.862Z,32.61
2018-07-14T13:11:20.182Z,33.31
2018-07-14T13:13:49.266Z,33.20
2018-07-14T13:16:18.321Z,33.00
2018-07-14T13:18:47.443Z,33.52
2018-07-14T13:21:16.601Z,33.53
2018-07-14T13:23:46.574Z,34.18
2018-07-14T13:26:15.843Z,37.84
2018-07-14T13:28:45.023Z,37.82
2018-07-14T13:31:13.636Z,37.09
2018-07-14T13:33:42.714Z,38.00
2018-07-14T13:36:11.828Z,39.61
2018-07-14T13:38:51.260Z,40.88
2018-07-14T13:41:09.910Z,42.10
2018-07-14T13:43:39.026Z,39.66
2018-07-14T13:46:08.115Z,40.32
2018-07-14T13:48:37.183Z,38.87
2018-07-14T13:51:06.338Z,36.06
2018-07-14T13:53:35.411Z,37.79
2018-07-14T13:56:04.469Z,37.35
2018-07-14T13:58:33.554Z,38.07
2018-07-14T14:01:02.591Z,37.76
2018-07-14T14:03:31.634Z,37.75
2018-07-14T14:06:00.708Z,38.20
2018-07-14T14:08:29.745Z,39.11
2018-07-14T14:10:58.794Z,39.60
2018-07-14T14:13:28.858Z,37.29
2018-07-14T14:15:57.942Z,37.44
2018-07-14T14:18:27.007Z,36.75
2018-07-14T14:20:56.083Z,34.92
2018-07-14T14:23:25.134Z,34.01
2018-07-14T14:25:54.203Z,33.67
2018-07-14T14:28:23.015Z,33.73
2018-07-14T14:30:52.061Z,32.79
2018-07-14T14:33:21.134Z,32.51
2018-07-14T14:35:50.214Z,32.55
2018-07-14T14:38:18.864Z,32.83
2018-07-14T14:40:47.954Z,31.93
2018-07-14T14:43:17.014Z,31.73
2018-07-14T14:45:46.063Z,32.18
2018-07-14T14:48:15.136Z,32.91
2018-07-14T14:50:44.224Z,34.36
2018-07-14T14:53:14.323Z,35.02
2018-07-14T14:55:43.667Z,36.24
2018-07-14T14:58:12.699Z,37.23
2018-07-14T15:00:41.751Z,38.12
2018-07-14T15:03:10.876Z,36.54
2018-07-14T15:05:39.963Z,39.65
2018-07-14T15:08:09.006Z,40.59
2018-07-14T15:10:38.103Z,40.94
2018-07-14T15:13:07.164Z,39.83
2018-07-14T15:15:36.256Z,39.44
2018-07-14T15:18:05.345Z,38.67
2018-07-14T15:20:34.422Z,39.06
2018-07-14T15:23:03.490Z,38.61
2018-07-14T15:25:32.564Z,39.00
2018-07-14T15:28:01.611Z,39.61
2018-07-14T15:30:30.870Z,38.88
2018-07-14T15:33:00.302Z,37.68
2018-07-14T15:35:29.215Z,38.01
2018-07-14T15:37:58.270Z,37.76
2018-07-14T15:40:27.315Z,36.66
2018-07-14T15:42:56.387Z,34.60
2018-07-14T15:45:25.434Z,32.40
2018-07-14T15:47:54.478Z,32.05
2018-07-14T15:50:23.959Z,32.21
2018-07-14T15:52:53.320Z,32.96
2018-07-14T15:55:22.087Z,32.78
2018-07-14T15:57:51.315Z,33.23
2018-07-14T16:00:20.519Z,32.80
2018-07-14T16:02:49.472Z,32.42
2018-07-14T16:05:18.745Z,33.04
2018-07-14T16:07:47.430Z,33.57
2018-07-14T16:10:16.550Z,33.41
2018-07-14T16:12:45.594Z,33.29
2018-07-14T16:15:14.689Z,33.73
2018-07-14T16:17:43.793Z,32.35
2018-07-14T16:20:12.872Z,31.49
2018-07-14T16:22:41.982Z,31.65
2018-07-14T16:25:11.071Z,31.69
2018-07-14T16:27:40.134Z,31.66
2018-07-14T16:30:09.394Z,32.03
2018-07-14T16:32:38.670Z,32.76
2018-07-14T16:35:07.908Z,32.64
2018-07-14T16:37:37.146Z,32.23
2018-07-14T16:40:06.427Z,32.18
2018-07-14T16:42:35.663Z,32.09
2018-07-14T16:45:05.494Z,32.42
2018-07-14T16:47:34.727Z,32.52
2018-07-14T16:50:04.019Z,32.37
2018-07-14T16:52:33.173Z,31.70
2018-07-14T16:55:02.463Z,30.67
2018-07-14T16:57:31.721Z,30.51
2018-07-14T17:00:00.895Z,30.27
2018-07-14T17:02:29.744Z,29.78
2018-07-14T17:04:59.006Z,29.99
2018-07-14T17:07:27.603Z,30.42
2018-07-14T17:09:56.935Z,30.60
2018-07-14T17:12:26.019Z,30.47
2018-07-14T17:14:55.095Z,30.39
2018-07-14T17:17:24.183Z,30.43
2018-07-14T17:19:53.226Z,30.15
2018-07-14T17:22:22.292Z,29.91
2018-07-14T17:24:51.368Z,29.98
2018-07-14T17:27:20.620Z,29.70
2018-07-14T17:29:50.054Z,29.44
2018-07-14T17:32:19.402Z,29.26
2018-07-14T17:34:48.028Z,29.08
2018-07-14T17:37:17.088Z,28.86
2018-07-14T17:39:46.215Z,28.44
2018-07-14T17:42:15.273Z,28.19
2018-07-14T17:44:44.162Z,28.25
2018-07-14T17:47:13.245Z,28.45
2018-07-14T17:49:42.310Z,28.53
2018-07-14T17:52:11.422Z,28.42
2018-07-14T17:54:40.839Z,28.28
2018-07-14T17:57:09.867Z,28.13
2018-07-14T17:59:39.547Z,28.03
2018-07-14T18:02:08.862Z,27.94
2018-07-14T18:04:37.966Z,27.88
2018-07-14T18:07:07.272Z,27.84
2018-07-14T18:09:36.279Z,27.76
2018-07-14T18:12:05.478Z,27.79
2018-07-14T18:14:34.560Z,27.68
2018-07-14T18:17:03.610Z,27.66
2018-07-14T18:19:32.675Z,27.49
2018-07-14T18:22:01.726Z,27.15
2018-07-14T18:24:30.766Z,27.00
2018-07-14T18:27:00.039Z,26.73
2018-07-14T18:29:29.402Z,26.90
2018-07-14T18:31:58.678Z,27.11
2018-07-14T18:34:28.013Z,27.13
2018-07-14T18:36:57.299Z,27.36
2018-07-14T18:39:26.598Z,27.11
2018-07-14T18:41:55.894Z,27.05
2018-07-14T18:44:24.727Z,27.06
2018-07-14T18:46:54.079Z,26.97
2018-07-14T18:49:23.487Z,26.56
2018-07-14T18:51:52.702Z,26.36
2018-07-14T18:54:21.590Z,26.20
2018-07-14T18:56:50.839Z,26.15
2018-07-14T18:59:19.906Z,25.77
2018-07-14T19:01:48.958Z,25.51
2018-07-14T19:04:18.060Z,25.46
2018-07-14T19:06:47.354Z,25.31
2018-07-14T19:09:17.101Z,25.18
2018-07-14T19:11:46.992Z,25.03
2018-07-14T19:14:16.683Z,24.77
2018-07-14T19:16:45.800Z,24.46
2018-07-14T19:19:14.863Z,24.08
2018-07-14T19:21:43.958Z,23.90
2018-07-14T19:24:13.106Z,23.88
2018-07-14T19:26:42.198Z,23.80
2018-07-14T19:29:11.294Z,23.51
2018-07-14T19:31:40.459Z,23.34
2018-07-14T19:34:09.522Z,23.18
2018-07-14T19:36:38.781Z,23.05
2018-07-14T19:39:08.547Z,22.97
2018-07-14T19:41:38.462Z,22.89
2018-07-14T19:44:07.686Z,22.99
2018-07-14T19:46:37.559Z,22.97
2018-07-14T19:49:08.850Z,22.90
2018-07-14T19:51:38.427Z,22.85
2018-07-14T19:54:07.776Z,22.66
2018-07-14T19:56:37.289Z,22.36
2018-07-14T19:59:07.895Z,22.12
2018-07-14T20:01:37.240Z,22.13
2018-07-14T20:04:07.087Z,22.13
2018-07-14T20:06:36.712Z,22.09
2018-07-14T20:09:06.645Z,22.17
2018-07-14T20:11:35.752Z,22.13
2018-07-14T20:14:04.815Z,22.03
2018-07-14T20:16:33.903Z,21.94
2018-07-14T20:19:02.965Z,21.83
2018-07-14T20:21:32.023Z,21.54
2018-07-14T20:24:01.118Z,21.35
2018-07-14T20:26:30.382Z,21.30
2018-07-14T20:28:59.480Z,21.46
2018-07-14T20:31:34.758Z,21.44
2018-07-14T20:34:04.155Z,21.25
2018-07-14T20:36:33.235Z,21.08
2018-07-14T20:39:02.395Z,20.97
2018-07-14T20:41:32.434Z,20.87
2018-07-14T20:44:00.986Z,20.78
2018-07-14T20:46:30.163Z,21.04
2018-07-14T20:48:59.247Z,21.10
2018-07-14T20:51:28.670Z,20.96
2018-07-14T20:53:57.941Z,20.82
2018-07-14T20:56:27.912Z,20.74
2018-07-14T20:58:57.026Z,20.60
2018-07-14T21:01:25.777Z,20.44
2018-07-14T21:03:54.931Z,20.47
2018-07-14T21:06:24.036Z,20.36
2018-07-14T21:08:53.166Z,20.42
2018-07-14T21:11:25.086Z,20.43
2018-07-14T21:13:54.961Z,20.35
2018-07-14T21:18:59.402Z,20.14
2018-07-14T21:21:28.474Z,19.96
2018-07-14T21:23:57.542Z,19.86
2018-07-14T21:26:26.923Z,19.90
2018-07-14T21:28:56.558Z,19.84
2018-07-14T21:31:25.963Z,19.77
2018-07-14T21:33:55.323Z,19.77
2018-07-14T21:36:24.985Z,19.66
2018-07-14T21:38:55.048Z,19.59
2018-07-14T21:41:23.695Z,19.41
2018-07-14T21:43:53.238Z,19.29
2018-07-14T21:46:22.962Z,19.21
2018-07-14T21:48:52.015Z,19.22
2018-07-14T21:51:21.109Z,19.07
2018-07-14T21:53:50.206Z,19.04
2018-07-14T21:56:19.312Z,18.92
2018-07-14T21:58:48.387Z,18.71
2018-07-14T22:01:23.834Z,18.66
2018-07-14T22:03:53.175Z,18.65
2018-07-14T22:06:22.259Z,18.66
2018-07-14T22:08:52.219Z,18.60
2018-07-14T22:11:21.295Z,18.48
2018-07-14T22:13:50.459Z,18.50
2018-07-14T22:16:19.524Z,18.54
2018-07-14T22:18:48.606Z,18.45
2018-07-14T22:21:18.467Z,18.47
2018-07-14T22:23:47.566Z,18.34
2018-07-14T22:26:16.641Z,18.19
2018-07-14T22:28:45.718Z,18.22
2018-07-14T22:31:14.894Z,18.37
2018-07-14T22:33:43.946Z,18.40
2018-07-14T22:36:13.033Z,18.39
2018-07-14T22:38:42.102Z,18.39
2018-07-14T22:41:11.193Z,18.27
2018-07-14T22:43:40.258Z,18.16
2018-07-14T22:46:09.378Z,18.16
2018-07-14T22:48:38.550Z,18.15
2018-07-14T22:51:07.606Z,18.22
2018-07-14T22:53:36.724Z,18.34
2018-07-14T22:56:05.807Z,18.28
2018-07-14T22:58:34.931Z,18.32
2018-07-14T23:01:04.339Z,18.34
2018-07-14T23:03:33.817Z,18.31
2018-07-14T23:06:02.887Z,18.12
2018-07-14T23:08:32.021Z,18.04
2018-07-14T23:11:01.066Z,18.00
2018-07-14T23:13:30.475Z,17.92
2018-07-14T23:15:59.539Z,18.07
2018-07-14T23:18:28.638Z,18.12
2018-07-14T23:20:57.759Z,18.07
2018-07-14T23:23:26.819Z,17.96
2018-07-14T23:25:58.870Z,17.80
2018-07-14T23:28:27.942Z,17.70
2018-07-14T23:30:57.436Z,17.72
2018-07-14T23:33:26.487Z,17.73
2018-07-14T23:35:55.627Z,17.67
2018-07-14T23:38:24.729Z,17.69
2018-07-14T23:40:53.791Z,17.71
2018-07-14T23:43:22.934Z,17.58
2018-07-14T23:45:52.274Z,17.51
2018-07-14T23:48:20.978Z,17.34
2018-07-14T23:50:50.990Z,17.40
2018-07-14T23:53:20.062Z,17.17
2018-07-14T23:55:49.189Z,17.22
2018-07-14T23:58:18.326Z,17.29
